Portada
METAR-TAF:

METAR-TAF

Aeroports :

Kinston Regional Jetport at Stallings Field

Kinston, Carolina del Nord, Estats Units d'Amèrica

latitud: 35-20N, longitud: 077-37W, altitud: 29 m

Observació

L'informe es va fer fa 8 minuts, a les 04:55 UTC
Vent calma
Temperatura 1°C
Humitat 93%
Pressió 1025 hPa
Visibilitat: 16.1 km
Cel clar

METAR: KISO 210455Z AUTO 00000KT 10SM CLR 01/00 A3026 RMK AO2 T00120003

Hora: 00:03 (05:03 UTC)

Pronòstic

L'informe es va fer fa 5 hores i 37 minuts, a les 23:26 UTC
Pronòstic vàlid del 21 a les 00 UTC al 21 a les 24 UTC
Vent kt del Nord
Visibilitat: 10 km
Cel clar
A partir de les 21 a les 1300 UTC
Vent 4 kt amb direcció variable
Visibilitat: 10 km
Escasses núvols a una alçada de 20000 ft

TAF: KISO 202326Z 2100/2124 00000KT P6SM SKC FM211300 VRB04KT P6SM FEW200 AMD LTD TO CLD VIS AND WIND

Observacions i pronòstics meteorològics de més de 4000 aeroports (METAR i TAF).

Les estacions disponibles són els punts grocs i vermells al mapa.

Posi el ratolí al punt desitjat per veure el nom de l'estació.

Feu clic per veure les observacions i els pronòstics meteorològics.

Per canviar el mapa: feu clic els botons verds amb una creu de color negre per apropar; al botó verd amb un guió per allunyar la imatge; o en les fletxes verdes per a mapes adjacents.


METAR-TAF: